createdAt,value
2022-12-18T00:01:36.143Z,14.15
2022-12-18T00:04:07.186Z,13.43
2022-12-18T00:06:36.515Z,13.48
2022-12-18T00:09:05.475Z,13.17
2022-12-18T00:11:33.559Z,13.32
2022-12-18T00:27:35.641Z,11.63
2022-12-18T00:30:03.736Z,12.40
2022-12-18T00:32:31.900Z,12.77
2022-12-18T00:44:03.564Z,12.23
2022-12-18T00:46:32.502Z,12.20
2022-12-18T00:49:00.591Z,12.93
2022-12-18T00:51:28.799Z,14.93
2022-12-18T00:53:57.173Z,15.15
2022-12-18T01:00:56.791Z,12.95
2022-12-18T01:03:25.068Z,13.40
2022-12-18T01:05:53.406Z,13.60
2022-12-18T01:08:21.297Z,14.52
2022-12-18T01:10:49.446Z,13.50
2022-12-18T01:17:49.864Z,13.13
2022-12-18T01:20:17.676Z,13.43
2022-12-18T01:22:47.182Z,13.48
2022-12-18T01:25:15.435Z,12.75
2022-12-18T01:27:44.809Z,14.07
2022-12-18T01:30:12.956Z,13.25
2022-12-18T01:32:41.131Z,13.43
2022-12-18T01:35:09.525Z,14.15
2022-12-18T01:42:02.413Z,12.23
2022-12-18T01:48:58.423Z,12.05
2022-12-18T01:51:28.286Z,13.07
2022-12-18T01:53:56.558Z,12.82
2022-12-18T01:56:49.870Z,13.73
2022-12-18T01:59:17.822Z,13.73
2022-12-18T02:01:45.942Z,13.07
2022-12-18T02:04:26.256Z,12.65
2022-12-18T02:23:57.035Z,13.20
2022-12-18T02:26:30.817Z,13.10
2022-12-18T02:33:27.117Z,11.88
2022-12-18T02:36:44.263Z,13.32
2022-12-18T02:39:15.185Z,13.50
2022-12-18T02:42:20.024Z,12.32
2022-12-18T02:44:52.013Z,14.07
2022-12-18T02:47:32.644Z,13.77
2022-12-18T02:55:46.518Z,12.18
2022-12-18T03:07:29.159Z,13.45
2022-12-18T03:11:08.707Z,12.40
2022-12-18T03:17:10.274Z,12.50
2022-12-18T03:19:51.756Z,11.93
2022-12-18T03:22:20.393Z,12.73
2022-12-18T03:24:58.914Z,13.10
2022-12-18T03:27:30.596Z,12.45
2022-12-18T03:34:25.534Z,12.65
2022-12-18T03:36:56.135Z,12.82
2022-12-18T03:39:26.255Z,13.80
2022-12-18T03:42:51.690Z,13.00
2022-12-18T03:45:20.939Z,12.90
2022-12-18T03:48:28.746Z,13.65
2022-12-18T03:54:44.365Z,13.47
2022-12-18T03:57:21.071Z,13.82
2022-12-18T04:18:50.818Z,14.40
2022-12-18T04:21:20.755Z,14.00
2022-12-18T04:23:50.674Z,13.20
2022-12-18T04:26:21.709Z,14.80
2022-12-18T04:29:03.497Z,13.93
2022-12-18T04:31:31.696Z,12.98
2022-12-18T04:34:49.590Z,15.18
2022-12-18T04:37:18.067Z,14.73
2022-12-18T04:39:46.688Z,14.68
2022-12-18T04:43:41.916Z,13.57
2022-12-18T04:46:10.828Z,14.02
2022-12-18T04:48:38.721Z,14.30
2022-12-18T05:08:50.647Z,13.85
2022-12-18T05:11:19.258Z,13.48
2022-12-18T05:18:28.148Z,12.87
2022-12-18T05:21:47.514Z,14.90
2022-12-18T05:24:15.583Z,15.05
2022-12-18T05:26:43.761Z,14.60
2022-12-18T05:29:13.769Z,15.40
2022-12-18T05:31:42.785Z,14.83
2022-12-18T05:34:11.910Z,14.43
2022-12-18T05:36:40.626Z,18.27
2022-12-18T05:39:33.848Z,15.63
2022-12-18T05:42:07.052Z,15.70
2022-12-18T05:44:35.313Z,15.47
2022-12-18T05:47:03.077Z,15.80
2022-12-18T05:59:01.242Z,15.07
2022-12-18T06:01:29.696Z,15.00
2022-12-18T06:03:58.979Z,15.32
2022-12-18T06:19:35.742Z,15.90
2022-12-18T06:22:05.004Z,17.77
2022-12-18T06:29:31.858Z,15.35
2022-12-18T06:31:59.691Z,18.08
2022-12-18T06:34:27.832Z,17.00
2022-12-18T06:36:58.456Z,18.30
2022-12-18T06:40:16.514Z,17.25
2022-12-18T06:42:44.373Z,15.13
2022-12-18T06:45:13.539Z,15.30
2022-12-18T06:47:41.746Z,15.63
2022-12-18T06:59:16.275Z,14.38
2022-12-18T07:01:44.685Z,15.20
2022-12-18T07:04:14.442Z,15.17
2022-12-18T07:07:14.704Z,16.88
2022-12-18T07:09:46.002Z,16.80
2022-12-18T07:12:13.745Z,16.08
2022-12-18T07:14:47.281Z,16.42
2022-12-18T07:17:15.148Z,17.00
2022-12-18T07:19:43.122Z,15.40
2022-12-18T07:22:36.993Z,16.27
2022-12-18T07:25:06.411Z,14.90
2022-12-18T07:27:34.186Z,14.13
2022-12-18T07:30:12.962Z,16.37
2022-12-18T07:32:44.228Z,14.07
2022-12-18T07:35:12.404Z,14.57
2022-12-18T07:37:40.152Z,13.82
2022-12-18T07:40:12.342Z,14.90
2022-12-18T07:47:35.622Z,14.32
2022-12-18T07:50:08.448Z,13.68
2022-12-18T07:52:37.269Z,14.25
2022-12-18T07:56:24.909Z,14.43
2022-12-18T07:58:39.381Z,22.53
2022-12-18T08:01:12.577Z,18.30
2022-12-18T08:04:14.085Z,15.88
2022-12-18T08:07:17.896Z,16.02
2022-12-18T08:09:54.392Z,15.10
2022-12-18T08:12:27.603Z,14.10
2022-12-18T08:15:20.463Z,14.43
2022-12-18T08:18:00.828Z,14.85
2022-12-18T08:20:33.080Z,14.40
2022-12-18T08:23:08.913Z,14.63
2022-12-18T08:25:39.972Z,14.30
2022-12-18T08:28:41.939Z,13.63
2022-12-18T08:31:19.680Z,13.88
2022-12-18T08:34:25.138Z,16.27
2022-12-18T08:37:20.905Z,15.82
2022-12-18T08:39:56.281Z,17.30
2022-12-18T08:42:47.997Z,15.07
2022-12-18T08:45:27.777Z,14.43
2022-12-18T08:48:01.144Z,14.52
2022-12-18T08:51:19.759Z,16.33
2022-12-18T08:53:48.488Z,15.00
2022-12-18T08:56:18.688Z,14.07
2022-12-18T08:58:46.732Z,15.15
2022-12-18T09:01:15.455Z,13.57
2022-12-18T09:03:44.962Z,13.75
2022-12-18T09:06:17.094Z,22.27
2022-12-18T09:08:46.934Z,15.23
2022-12-18T09:14:46.213Z,13.98
2022-12-18T09:17:14.957Z,14.18
2022-12-18T09:37:52.533Z,14.10
2022-12-18T09:41:15.682Z,20.10
2022-12-18T09:44:44.736Z,13.93
2022-12-18T09:47:31.373Z,13.98
2022-12-18T09:50:21.357Z,14.68
2022-12-18T09:53:32.853Z,14.40
2022-12-18T09:56:06.012Z,14.13
2022-12-18T09:59:02.510Z,15.25
2022-12-18T10:01:41.475Z,20.02
2022-12-18T10:04:18.615Z,16.80
2022-12-18T10:07:08.772Z,19.52
2022-12-18T10:10:47.480Z,16.10
2022-12-18T10:13:55.908Z,15.50
2022-12-18T10:16:57.821Z,15.25
2022-12-18T10:19:56.260Z,13.57
2022-12-18T10:23:04.473Z,14.70
2022-12-18T10:25:58.588Z,15.10
2022-12-18T10:28:28.010Z,16.20
2022-12-18T10:31:00.653Z,16.23
2022-12-18T10:33:34.149Z,15.05
2022-12-18T10:36:02.427Z,15.15
2022-12-18T10:39:15.316Z,15.03
2022-12-18T10:42:17.550Z,12.90
2022-12-18T10:44:49.645Z,11.30
2022-12-18T10:47:22.639Z,10.98
2022-12-18T10:50:00.424Z,11.93
2022-12-18T10:52:45.104Z,13.67
2022-12-18T10:56:07.924Z,8.90
2022-12-18T10:59:02.374Z,10.48
2022-12-18T11:02:01.024Z,9.43
2022-12-18T11:04:37.532Z,10.15
2022-12-18T11:07:10.324Z,9.77
2022-12-18T11:09:47.188Z,7.32
2022-12-18T11:12:26.686Z,8.48
2022-12-18T11:15:01.648Z,7.50
2022-12-18T11:17:32.241Z,13.70
2022-12-18T11:20:34.229Z,7.50
2022-12-18T11:26:48.016Z,13.63
2022-12-18T11:29:33.351Z,10.07
2022-12-18T11:32:27.733Z,7.95
2022-12-18T11:35:12.854Z,7.50
2022-12-18T11:37:50.867Z,7.10
2022-12-18T11:40:24.764Z,7.50
2022-12-18T11:42:59.648Z,11.57
2022-12-18T11:45:32.979Z,13.13
2022-12-18T11:48:20.115Z,8.60
2022-12-18T11:50:54.481Z,16.55
2022-12-18T11:53:23.031Z,11.10
2022-12-18T11:56:20.270Z,9.90
2022-12-18T11:59:22.256Z,7.38
2022-12-18T12:01:55.354Z,6.97
2022-12-18T12:04:50.613Z,7.78
2022-12-18T12:07:31.031Z,6.93
2022-12-18T12:10:34.952Z,8.38
2022-12-18T12:13:23.563Z,22.70
2022-12-18T12:16:17.240Z,9.00
2022-12-18T12:18:53.926Z,7.38
2022-12-18T12:21:43.863Z,7.47
2022-12-18T12:24:41.238Z,8.68
2022-12-18T12:27:30.043Z,10.50
2022-12-18T12:30:11.676Z,7.50
2022-12-18T12:37:07.861Z,8.13
2022-12-18T12:39:52.515Z,11.73
2022-12-18T12:43:10.781Z,18.73
2022-12-18T12:46:20.428Z,8.90
2022-12-18T12:49:25.829Z,8.00
2022-12-18T12:56:20.978Z,11.18
2022-12-18T12:59:02.650Z,8.98
2022-12-18T13:02:08.804Z,11.60
2022-12-18T13:05:07.247Z,8.90
2022-12-18T13:08:12.820Z,8.60
2022-12-18T13:10:48.167Z,10.18
2022-12-18T13:13:25.282Z,8.77
2022-12-18T13:20:22.881Z,8.10
2022-12-18T13:22:53.701Z,8.85
2022-12-18T13:25:47.837Z,11.30
2022-12-18T13:28:48.366Z,11.25
2022-12-18T13:31:43.363Z,10.10
2022-12-18T13:35:18.758Z,11.00
2022-12-18T13:38:43.866Z,9.23
2022-12-18T14:00:43.980Z,9.82
2022-12-18T14:03:30.309Z,16.10
2022-12-18T14:06:23.904Z,28.83
2022-12-18T14:09:04.336Z,13.85
2022-12-18T14:11:33.882Z,13.80
2022-12-18T14:14:02.973Z,9.68
2022-12-18T14:16:31.846Z,9.75
2022-12-18T14:19:15.010Z,9.80
2022-12-18T14:21:52.053Z,12.38
2022-12-18T14:24:22.545Z,8.60
2022-12-18T14:26:52.010Z,9.15
2022-12-18T14:29:23.311Z,7.90
2022-12-18T14:32:17.805Z,7.60
2022-12-18T14:39:19.551Z,7.85
2022-12-18T14:42:00.282Z,8.40
2022-12-18T14:44:44.140Z,8.18
2022-12-18T14:47:17.991Z,8.53
2022-12-18T14:49:47.670Z,13.15
2022-12-18T14:53:19.562Z,10.75
2022-12-18T14:56:29.087Z,10.13
2022-12-18T14:59:24.525Z,9.13
2022-12-18T15:02:10.173Z,8.87
2022-12-18T15:04:44.488Z,8.13
2022-12-18T15:07:12.905Z,8.25
2022-12-18T15:09:43.463Z,9.13
2022-12-18T15:12:54.156Z,8.98
2022-12-18T15:16:01.726Z,14.00
2022-12-18T15:18:43.643Z,14.68
2022-12-18T15:21:17.789Z,12.18
2022-12-18T15:24:30.893Z,11.65
2022-12-18T15:27:01.903Z,9.68
2022-12-18T15:30:47.274Z,11.57
2022-12-18T15:33:28.765Z,11.98
2022-12-18T15:36:32.268Z,16.58
2022-12-18T15:39:16.994Z,18.48
2022-12-18T15:46:18.781Z,17.40
2022-12-18T15:49:06.080Z,12.88
2022-12-18T15:52:00.520Z,9.27
2022-12-18T15:59:18.777Z,9.63
2022-12-18T16:01:50.295Z,9.70
2022-12-18T16:04:22.016Z,9.05
2022-12-18T16:07:17.604Z,9.93
2022-12-18T16:10:22.027Z,9.68
2022-12-18T16:13:51.725Z,10.93
2022-12-18T16:17:21.027Z,9.00
2022-12-18T16:19:52.875Z,10.02
2022-12-18T16:22:31.337Z,10.10
2022-12-18T16:25:30.435Z,9.13
2022-12-18T16:28:00.579Z,9.43
2022-12-18T16:31:11.156Z,9.13
2022-12-18T16:33:54.674Z,8.85
2022-12-18T16:45:55.914Z,9.02
2022-12-18T16:53:33.290Z,11.80
2022-12-18T16:56:32.390Z,13.82
2022-12-18T16:59:02.457Z,14.10
2022-12-18T17:01:32.545Z,17.27
2022-12-18T17:08:32.664Z,14.35
2022-12-18T17:11:14.612Z,14.30
2022-12-18T17:13:43.136Z,13.82
2022-12-18T17:16:13.681Z,13.00
2022-12-18T17:19:33.551Z,12.17
2022-12-18T17:22:01.370Z,11.90
2022-12-18T17:29:37.648Z,10.70
2022-12-18T17:32:27.541Z,10.73
2022-12-18T17:35:08.953Z,10.77
2022-12-18T17:37:43.133Z,12.15
2022-12-18T17:40:11.274Z,16.17
2022-12-18T17:46:40.011Z,14.70
2022-12-18T17:53:31.970Z,10.15
2022-12-18T17:56:37.579Z,10.77
2022-12-18T17:59:10.031Z,10.32
2022-12-18T18:01:44.020Z,12.55
2022-12-18T18:04:26.346Z,23.67
2022-12-18T18:14:47.671Z,13.05
2022-12-18T18:17:15.608Z,13.27
2022-12-18T18:20:33.550Z,12.60
2022-12-18T18:23:01.377Z,12.38
2022-12-18T18:25:29.954Z,14.35
2022-12-18T18:29:14.550Z,17.17
2022-12-18T18:31:43.680Z,16.75
2022-12-18T18:38:30.089Z,12.45
2022-12-18T18:41:02.194Z,10.57
2022-12-18T18:43:58.988Z,11.43
2022-12-18T18:46:27.540Z,12.05
2022-12-18T18:48:56.252Z,13.17
2022-12-18T18:51:33.169Z,14.90
2022-12-18T18:54:03.657Z,16.88
2022-12-18T19:01:22.931Z,14.32
2022-12-18T19:04:24.086Z,13.93
2022-12-18T19:16:59.812Z,14.55
2022-12-18T19:19:29.494Z,12.55
2022-12-18T19:21:57.307Z,16.57
2022-12-18T19:24:25.515Z,13.30
2022-12-18T19:26:56.876Z,12.80
2022-12-18T19:38:47.130Z,10.90
2022-12-18T19:41:16.329Z,17.85
2022-12-18T19:44:37.868Z,19.30
2022-12-18T19:47:05.744Z,8.48
2022-12-18T19:49:34.102Z,10.85
2022-12-18T20:01:01.887Z,11.00
2022-12-18T20:03:32.835Z,10.95
2022-12-18T20:10:49.140Z,14.10
2022-12-18T20:14:37.558Z,15.13
2022-12-18T20:17:06.044Z,10.10
2022-12-18T20:19:34.288Z,9.60
2022-12-18T20:22:27.903Z,11.80
2022-12-18T20:24:56.033Z,12.80
2022-12-18T20:27:24.750Z,11.57
2022-12-18T20:29:52.473Z,12.68
2022-12-18T20:32:21.618Z,14.63
2022-12-18T20:43:54.971Z,13.07
2022-12-18T20:46:23.037Z,14.27
2022-12-18T20:48:51.162Z,13.13
2022-12-18T20:51:24.495Z,13.43
2022-12-18T20:53:53.852Z,14.40
2022-12-18T20:56:23.254Z,12.68
2022-12-18T21:07:55.899Z,8.68
2022-12-18T21:14:56.630Z,10.13
2022-12-18T21:17:24.446Z,10.35
2022-12-18T21:19:55.065Z,10.15
2022-12-18T21:27:49.016Z,8.83
2022-12-18T21:30:17.275Z,10.80
2022-12-18T22:03:55.713Z,13.43
2022-12-18T22:06:26.686Z,10.47
2022-12-18T22:08:54.875Z,11.35
2022-12-18T22:12:31.345Z,11.32
2022-12-18T22:14:59.852Z,10.27
2022-12-18T22:17:27.607Z,11.80
2022-12-18T22:19:58.376Z,12.73
2022-12-18T22:22:26.108Z,10.77
2022-12-18T22:24:54.475Z,10.30
2022-12-18T22:36:22.979Z,8.17
2022-12-18T22:38:51.201Z,9.13
2022-12-18T22:41:23.963Z,7.80
2022-12-18T22:43:51.910Z,8.48
2022-12-18T22:46:21.330Z,7.82
2022-12-18T22:50:10.742Z,9.57
2022-12-18T22:52:38.957Z,8.18
2022-12-18T22:55:07.488Z,8.30
2022-12-18T22:58:25.654Z,8.75
2022-12-18T23:00:53.635Z,8.30
2022-12-18T23:03:22.120Z,8.00
2022-12-18T23:06:16.343Z,7.80
2022-12-18T23:08:45.298Z,9.10
2022-12-18T23:11:35.533Z,10.30
2022-12-18T23:14:03.881Z,8.15
2022-12-18T23:17:10.524Z,9.47
2022-12-18T23:19:49.512Z,8.95
2022-12-18T23:22:18.076Z,8.95
2022-12-18T23:24:46.743Z,9.23
2022-12-18T23:27:14.575Z,8.75
2022-12-18T23:29:42.822Z,10.13
2022-12-18T23:32:14.152Z,9.93
2022-12-18T23:34:42.178Z,9.07
2022-12-18T23:37:10.137Z,9.25
2022-12-18T23:39:38.247Z,9.75
2022-12-18T23:42:06.070Z,8.67
2022-12-18T23:44:34.486Z,10.20
2022-12-18T23:47:07.652Z,9.90
2022-12-18T23:54:32.927Z,7.50
2022-12-18T23:57:52.046Z,9.00
